createdAt,value
2023-01-25T00:00:56.592Z,28.40
2023-01-25T00:03:23.144Z,26.08
2023-01-25T00:05:58.724Z,23.50
2023-01-25T00:08:25.480Z,26.88
2023-01-25T00:10:52.038Z,25.05
2023-01-25T00:13:18.586Z,26.30
2023-01-25T00:15:45.001Z,23.60
2023-01-25T00:18:11.435Z,27.67
2023-01-25T00:20:37.995Z,24.52
2023-01-25T00:23:04.547Z,25.92
2023-01-25T00:25:31.659Z,23.25
2023-01-25T00:27:58.173Z,23.63
2023-01-25T00:30:24.903Z,21.38
2023-01-25T00:33:27.510Z,27.35
2023-01-25T00:35:56.899Z,25.30
2023-01-25T00:38:33.679Z,21.52
2023-01-25T00:41:00.608Z,23.33
2023-01-25T00:43:27.472Z,25.48
2023-01-25T00:46:00.910Z,24.35
2023-01-25T00:48:27.612Z,23.23
2023-01-25T00:50:54.530Z,26.98
2023-01-25T00:53:21.142Z,27.77
2023-01-25T00:55:54.060Z,30.08
2023-01-25T00:58:20.711Z,26.33
2023-01-25T01:00:47.259Z,26.55
2023-01-25T01:03:13.793Z,31.75
2023-01-25T01:05:40.551Z,31.30
2023-01-25T01:08:06.997Z,28.33
2023-01-25T01:10:33.562Z,26.48
2023-01-25T01:13:00.390Z,26.20
2023-01-25T01:15:27.262Z,32.08
2023-01-25T01:17:53.992Z,27.30
2023-01-25T01:20:20.783Z,27.45
2023-01-25T01:22:47.436Z,25.58
2023-01-25T01:25:14.556Z,25.58
2023-01-25T01:27:41.144Z,25.00
2023-01-25T01:30:08.749Z,27.05
2023-01-25T01:32:35.502Z,31.45
2023-01-25T01:35:02.186Z,26.08
2023-01-25T01:37:28.801Z,25.90
2023-01-25T01:39:55.548Z,27.70
2023-01-25T01:42:22.175Z,31.40
2023-01-25T01:44:51.549Z,31.38
2023-01-25T01:47:24.629Z,30.77
2023-01-25T01:49:57.470Z,26.65
2023-01-25T01:52:31.018Z,24.05
2023-01-25T01:58:09.795Z,26.83
2023-01-25T02:00:40.011Z,24.35
2023-01-25T02:03:06.896Z,26.80
2023-01-25T02:05:56.297Z,23.83
2023-01-25T02:08:25.076Z,23.65
2023-01-25T02:10:51.763Z,30.23
2023-01-25T02:13:21.645Z,27.13
2023-01-25T02:15:52.017Z,25.90
2023-01-25T02:18:20.037Z,24.33
2023-01-25T02:20:50.950Z,26.80
2023-01-25T02:23:35.542Z,25.45
2023-01-25T02:26:05.706Z,29.23
2023-01-25T02:28:36.321Z,25.85
2023-01-25T02:31:02.818Z,26.95
2023-01-25T02:33:29.553Z,29.45
2023-01-25T02:36:15.831Z,27.35
2023-01-25T02:38:48.453Z,23.63
2023-01-25T02:41:37.193Z,25.10
2023-01-25T02:44:11.207Z,23.65
2023-01-25T02:46:39.677Z,28.13
2023-01-25T02:49:08.067Z,23.77
2023-01-25T02:51:37.262Z,25.50
2023-01-25T02:54:06.523Z,25.35
2023-01-25T02:56:33.737Z,27.92
2023-01-25T02:59:05.428Z,21.80
2023-01-25T03:01:37.709Z,22.50
2023-01-25T03:04:05.618Z,26.52
2023-01-25T03:06:33.467Z,24.85
2023-01-25T03:09:00.757Z,25.35
2023-01-25T03:11:27.268Z,24.73
2023-01-25T03:13:54.191Z,24.80
2023-01-25T03:16:21.016Z,27.48
2023-01-25T03:18:47.723Z,26.25
2023-01-25T03:21:22.224Z,26.42
2023-01-25T03:23:55.581Z,26.77
2023-01-25T03:26:23.628Z,27.38
2023-01-25T03:28:50.157Z,26.75
2023-01-25T03:31:17.787Z,27.25
2023-01-25T03:33:44.607Z,28.25
2023-01-25T03:36:12.085Z,26.83
2023-01-25T03:38:38.641Z,27.58
2023-01-25T03:41:05.298Z,26.58
2023-01-25T03:43:36.519Z,26.17
2023-01-25T03:46:03.564Z,28.23
2023-01-25T03:48:31.671Z,27.05
2023-01-25T03:50:59.382Z,25.30
2023-01-25T03:53:31.108Z,25.85
2023-01-25T03:56:00.853Z,24.10
2023-01-25T03:58:28.640Z,24.42
2023-01-25T04:00:56.985Z,24.65
2023-01-25T04:03:25.229Z,22.50
2023-01-25T04:05:53.145Z,28.27
2023-01-25T04:08:19.966Z,20.73
2023-01-25T04:10:53.095Z,23.17
2023-01-25T04:13:21.675Z,25.90
2023-01-25T04:15:48.340Z,21.42
2023-01-25T04:18:15.297Z,21.60
2023-01-25T04:20:43.211Z,23.55
2023-01-25T04:23:10.937Z,20.13
2023-01-25T04:25:42.862Z,18.83
2023-01-25T04:28:09.404Z,21.75
2023-01-25T04:30:35.901Z,21.45
2023-01-25T04:33:04.762Z,22.30
2023-01-25T04:35:31.658Z,17.33
2023-01-25T04:37:59.786Z,17.20
2023-01-25T04:40:26.702Z,15.95
2023-01-25T04:42:53.327Z,19.88
2023-01-25T04:45:20.045Z,18.67
2023-01-25T04:47:46.664Z,19.05
2023-01-25T04:50:13.318Z,19.65
2023-01-25T04:52:43.616Z,24.13
2023-01-25T04:55:10.529Z,20.13
2023-01-25T04:57:37.167Z,21.17
2023-01-25T05:00:04.259Z,21.98
2023-01-25T05:02:30.964Z,23.38
2023-01-25T05:04:57.614Z,20.67
2023-01-25T05:07:24.315Z,21.08
2023-01-25T05:09:50.865Z,23.75
2023-01-25T05:12:17.658Z,20.42
2023-01-25T05:14:44.344Z,18.40
2023-01-25T05:17:11.380Z,20.10
2023-01-25T05:19:38.322Z,18.60
2023-01-25T05:22:07.718Z,25.88
2023-01-25T05:24:36.184Z,23.13
2023-01-25T05:27:08.110Z,26.00
2023-01-25T05:29:37.234Z,26.23
2023-01-25T05:32:18.929Z,24.52
2023-01-25T05:34:46.657Z,21.80
2023-01-25T05:37:15.819Z,28.10
2023-01-25T05:39:42.607Z,22.90
2023-01-25T05:42:12.934Z,27.67
2023-01-25T05:44:39.725Z,25.17
2023-01-25T05:47:06.893Z,22.50
2023-01-25T05:49:33.642Z,21.63
2023-01-25T05:52:00.260Z,23.92
2023-01-25T05:54:27.007Z,24.42
2023-01-25T05:56:53.590Z,21.48
2023-01-25T05:59:21.582Z,22.52
2023-01-25T06:01:48.339Z,26.08
2023-01-25T06:04:15.861Z,22.48
2023-01-25T06:06:42.794Z,21.92
2023-01-25T06:09:11.785Z,26.55
2023-01-25T06:11:38.367Z,23.58
2023-01-25T06:14:05.311Z,21.70
2023-01-25T06:16:32.137Z,21.02
2023-01-25T06:18:58.879Z,23.23
2023-01-25T06:21:25.577Z,23.10
2023-01-25T06:23:52.308Z,24.23
2023-01-25T06:26:18.920Z,25.35
2023-01-25T06:28:45.507Z,30.25
2023-01-25T06:31:20.911Z,27.67
2023-01-25T06:33:50.023Z,24.83
2023-01-25T06:36:18.945Z,24.63
2023-01-25T06:38:52.414Z,28.98
2023-01-25T06:41:19.735Z,22.95
2023-01-25T06:43:46.334Z,33.25
2023-01-25T06:46:13.796Z,25.75
2023-01-25T06:48:41.823Z,24.05
2023-01-25T06:51:12.229Z,23.27
2023-01-25T06:53:42.272Z,24.50
2023-01-25T06:56:20.707Z,24.45
2023-01-25T06:58:48.266Z,23.58
2023-01-25T07:01:22.034Z,21.85
2023-01-25T07:03:52.985Z,23.25
2023-01-25T07:06:19.839Z,22.08
2023-01-25T07:08:46.977Z,27.98
2023-01-25T07:11:16.237Z,18.80
2023-01-25T07:13:47.983Z,23.88
2023-01-25T07:16:17.416Z,23.75
2023-01-25T07:18:44.453Z,24.67
2023-01-25T07:21:21.179Z,24.42
2023-01-25T07:23:51.277Z,22.55
2023-01-25T07:26:23.563Z,25.92
2023-01-25T07:28:51.489Z,20.20
2023-01-25T07:31:20.093Z,25.38
2023-01-25T07:33:51.084Z,26.63
2023-01-25T07:36:18.307Z,24.77
2023-01-25T07:38:45.408Z,23.52
2023-01-25T07:41:16.880Z,24.17
2023-01-25T07:43:43.683Z,20.80
2023-01-25T07:46:12.274Z,25.20
2023-01-25T07:48:40.292Z,27.13
2023-01-25T07:51:12.934Z,21.77
2023-01-25T07:53:43.595Z,24.23
2023-01-25T07:56:11.933Z,22.38
2023-01-25T07:58:39.185Z,20.50
2023-01-25T08:01:10.678Z,25.98
2023-01-25T08:03:37.563Z,22.73
2023-01-25T08:06:07.668Z,23.05
2023-01-25T08:08:36.355Z,18.75
2023-01-25T08:11:13.206Z,19.38
2023-01-25T08:13:40.830Z,19.58
2023-01-25T08:16:07.911Z,18.88
2023-01-25T08:18:36.004Z,18.58
2023-01-25T08:21:03.319Z,21.52
2023-01-25T08:23:30.115Z,20.70
2023-01-25T08:26:01.963Z,24.63
2023-01-25T08:28:28.493Z,21.23
2023-01-25T08:30:57.527Z,23.40
2023-01-25T08:33:24.343Z,25.15
2023-01-25T08:35:56.418Z,24.88
2023-01-25T08:38:26.614Z,19.45
2023-01-25T08:40:53.082Z,17.73
2023-01-25T08:43:19.695Z,17.48
2023-01-25T08:45:46.299Z,19.73
2023-01-25T08:48:15.671Z,21.55
2023-01-25T08:50:47.445Z,22.08
2023-01-25T08:53:14.355Z,17.98
2023-01-25T08:55:43.052Z,22.67
2023-01-25T08:58:19.838Z,21.92
2023-01-25T09:00:46.497Z,22.35
2023-01-25T09:03:13.201Z,20.20
2023-01-25T09:05:40.029Z,20.85
2023-01-25T09:08:08.516Z,18.60
2023-01-25T09:10:35.311Z,20.45
2023-01-25T09:13:02.638Z,22.38
2023-01-25T09:15:29.283Z,17.92
2023-01-25T09:17:57.234Z,19.58
2023-01-25T09:20:24.166Z,17.02
2023-01-25T09:22:50.761Z,18.30
2023-01-25T09:25:17.382Z,17.92
2023-01-25T09:27:44.020Z,17.80
2023-01-25T09:30:18.185Z,18.88
2023-01-25T09:32:45.928Z,19.75
2023-01-25T09:35:12.607Z,16.05
2023-01-25T09:37:39.604Z,18.42
2023-01-25T09:40:07.708Z,15.10
2023-01-25T09:42:39.808Z,14.13
2023-01-25T09:45:26.764Z,14.13
2023-01-25T09:48:17.469Z,13.15
2023-01-25T09:51:13.730Z,13.77
2023-01-25T09:53:50.221Z,15.77
2023-01-25T09:56:32.757Z,14.52
2023-01-25T09:59:21.970Z,20.23
2023-01-25T10:02:10.271Z,17.60
2023-01-25T10:04:43.157Z,15.70
2023-01-25T10:07:38.506Z,12.18
2023-01-25T10:10:14.115Z,13.65
2023-01-25T10:12:40.658Z,12.15
2023-01-25T10:15:19.926Z,10.10
2023-01-25T10:17:58.381Z,11.73
2023-01-25T10:20:37.459Z,10.60
2023-01-25T10:23:19.193Z,15.02
2023-01-25T10:26:00.246Z,12.13
2023-01-25T10:28:44.933Z,13.52
2023-01-25T10:31:29.555Z,12.55
2023-01-25T10:33:57.068Z,10.10
2023-01-25T10:36:30.346Z,13.30
2023-01-25T10:39:01.216Z,12.02
2023-01-25T10:41:36.403Z,11.60
2023-01-25T10:44:21.914Z,13.90
2023-01-25T10:47:04.434Z,10.50
2023-01-25T10:49:47.805Z,12.73
2023-01-25T10:52:18.815Z,11.80
2023-01-25T10:54:46.884Z,10.95
2023-01-25T10:57:19.210Z,15.27
2023-01-25T10:59:48.187Z,12.43
2023-01-25T11:02:36.445Z,13.25
2023-01-25T11:05:27.294Z,12.65
2023-01-25T11:07:53.969Z,13.18
2023-01-25T11:10:33.293Z,13.88
2023-01-25T11:13:15.029Z,13.02
2023-01-25T11:15:47.186Z,13.07
2023-01-25T11:18:35.059Z,12.25
2023-01-25T11:21:06.606Z,15.10
2023-01-25T11:23:33.983Z,13.90
2023-01-25T11:26:16.651Z,13.65
2023-01-25T11:28:44.810Z,16.33
2023-01-25T11:31:16.833Z,9.88
2023-01-25T11:33:43.396Z,8.38
2023-01-25T11:36:36.401Z,11.63
2023-01-25T11:39:06.291Z,11.77
2023-01-25T11:42:01.180Z,7.90
2023-01-25T11:44:53.355Z,9.45
2023-01-25T11:47:32.298Z,12.60
2023-01-25T11:50:16.789Z,11.35
2023-01-25T11:53:03.260Z,12.02
2023-01-25T11:55:40.619Z,13.85
2023-01-25T11:58:17.836Z,11.48
2023-01-25T12:00:50.372Z,13.95
2023-01-25T12:03:26.870Z,11.88
2023-01-25T12:06:27.808Z,14.07
2023-01-25T12:09:11.839Z,14.40
2023-01-25T12:12:02.732Z,13.15
2023-01-25T12:14:50.430Z,13.85
2023-01-25T12:17:42.919Z,14.52
2023-01-25T12:20:10.232Z,15.25
2023-01-25T12:22:42.934Z,13.57
2023-01-25T12:25:21.200Z,15.98
2023-01-25T12:28:05.089Z,15.32
2023-01-25T12:30:56.963Z,14.45
2023-01-25T12:33:32.532Z,16.15
2023-01-25T12:36:25.049Z,15.23
2023-01-25T12:39:18.231Z,14.82
2023-01-25T12:41:52.059Z,16.80
2023-01-25T12:44:29.316Z,16.80
2023-01-25T12:47:23.727Z,15.55
2023-01-25T12:49:55.711Z,16.52
2023-01-25T12:52:42.354Z,15.48
2023-01-25T12:55:17.546Z,19.50
2023-01-25T12:58:02.484Z,16.27
2023-01-25T13:00:43.995Z,22.63
2023-01-25T13:03:28.101Z,30.67
2023-01-25T13:06:36.902Z,18.83
2023-01-25T13:09:09.670Z,17.88
2023-01-25T13:11:41.717Z,12.07
2023-01-25T13:14:20.782Z,16.02
2023-01-25T13:17:08.582Z,16.30
2023-01-25T13:19:36.072Z,19.42
2023-01-25T13:22:02.725Z,21.58
2023-01-25T13:24:31.901Z,23.20
2023-01-25T13:27:23.444Z,19.70
2023-01-25T13:30:00.428Z,21.42
2023-01-25T13:32:33.057Z,22.00
2023-01-25T13:35:00.722Z,24.85
2023-01-25T13:37:33.129Z,23.08
2023-01-25T13:40:07.288Z,25.67
2023-01-25T13:42:36.710Z,20.35
2023-01-25T13:45:14.181Z,19.50
2023-01-25T13:47:43.418Z,21.88
2023-01-25T13:50:24.153Z,17.90
2023-01-25T13:53:02.892Z,20.23
2023-01-25T13:55:38.745Z,17.95
2023-01-25T13:58:14.989Z,20.05
2023-01-25T14:01:06.383Z,20.70
2023-01-25T14:03:48.621Z,16.08
2023-01-25T14:06:25.744Z,20.30
2023-01-25T14:08:55.803Z,23.50
2023-01-25T14:11:26.566Z,17.40
2023-01-25T14:14:00.924Z,16.60
2023-01-25T14:16:30.301Z,14.10
2023-01-25T14:19:18.632Z,16.73
2023-01-25T14:21:45.986Z,18.48
2023-01-25T14:24:18.452Z,20.45
2023-01-25T14:26:47.579Z,16.70
2023-01-25T14:29:35.409Z,15.00
2023-01-25T14:32:03.036Z,17.65
2023-01-25T14:34:29.797Z,15.73
2023-01-25T14:37:18.044Z,16.92
2023-01-25T14:39:46.534Z,19.25
2023-01-25T14:42:13.283Z,16.65
2023-01-25T14:44:40.715Z,13.90
2023-01-25T14:47:29.824Z,19.08
2023-01-25T14:50:16.958Z,17.67
2023-01-25T14:52:43.543Z,20.02
2023-01-25T14:55:10.176Z,17.02
2023-01-25T14:57:39.349Z,22.13
2023-01-25T15:00:19.549Z,17.13
2023-01-25T15:02:49.967Z,17.17
2023-01-25T15:05:24.080Z,15.35
2023-01-25T15:07:53.637Z,15.38
2023-01-25T15:10:33.361Z,14.57
2023-01-25T15:13:14.493Z,14.95
2023-01-25T15:15:58.608Z,15.00
2023-01-25T15:18:42.731Z,14.75
2023-01-25T15:21:31.105Z,13.15
2023-01-25T15:24:04.544Z,25.10
2023-01-25T15:26:33.401Z,33.65
2023-01-25T15:29:03.568Z,25.55
2023-01-25T15:31:37.026Z,16.73
2023-01-25T15:34:05.008Z,18.73
2023-01-25T15:36:35.815Z,23.98
2023-01-25T15:39:02.383Z,15.30
2023-01-25T15:41:29.588Z,14.77
2023-01-25T15:43:56.336Z,18.20
2023-01-25T15:46:26.596Z,13.82
2023-01-25T15:48:54.019Z,14.98
2023-01-25T15:51:21.257Z,13.88
2023-01-25T15:53:47.910Z,14.57
2023-01-25T15:56:24.432Z,12.30
2023-01-25T15:58:53.425Z,14.68
2023-01-25T16:01:21.297Z,16.55
2023-01-25T16:03:47.753Z,18.40
2023-01-25T16:06:26.751Z,15.90
2023-01-25T16:08:53.288Z,16.23
2023-01-25T16:11:19.702Z,19.23
2023-01-25T16:13:46.273Z,74.47
2023-01-25T16:16:19.433Z,21.40
2023-01-25T16:18:46.106Z,18.83
2023-01-25T16:21:14.025Z,24.17
2023-01-25T16:23:40.645Z,21.48
2023-01-25T16:26:17.580Z,22.92
2023-01-25T16:28:44.172Z,26.30
2023-01-25T16:31:30.776Z,26.23
2023-01-25T16:33:58.475Z,22.75
2023-01-25T16:36:26.303Z,23.00
2023-01-25T16:38:52.986Z,22.73
2023-01-25T16:41:19.804Z,23.45
2023-01-25T16:43:48.183Z,30.17
2023-01-25T16:46:20.993Z,26.45
2023-01-25T16:48:49.809Z,31.17
2023-01-25T16:51:22.167Z,30.98
2023-01-25T16:53:50.988Z,28.38
2023-01-25T16:56:26.508Z,26.40
2023-01-25T16:58:54.947Z,23.98
2023-01-25T17:01:24.969Z,21.23
2023-01-25T17:03:54.332Z,21.33
2023-01-25T17:06:22.309Z,22.60
2023-01-25T17:08:49.706Z,22.85
2023-01-25T17:11:18.913Z,22.00
2023-01-25T17:13:54.570Z,24.17
2023-01-25T17:16:24.096Z,22.83
2023-01-25T17:19:00.101Z,27.83
2023-01-25T17:21:27.812Z,23.25
2023-01-25T17:23:56.713Z,25.13
2023-01-25T17:26:23.802Z,19.58
2023-01-25T17:28:50.860Z,19.90
2023-01-25T17:31:20.819Z,20.63
2023-01-25T17:33:51.534Z,20.50
2023-01-25T17:36:18.499Z,19.08
2023-01-25T17:38:45.198Z,17.98
2023-01-25T17:41:15.961Z,18.17
2023-01-25T17:43:42.524Z,15.60
2023-01-25T17:46:25.492Z,19.77
2023-01-25T17:48:57.477Z,16.30
2023-01-25T17:51:25.128Z,19.65
2023-01-25T17:53:53.051Z,17.50
2023-01-25T17:56:20.500Z,16.52
2023-01-25T17:58:47.690Z,17.70
2023-01-25T18:01:16.800Z,16.33
2023-01-25T18:03:44.703Z,18.52
2023-01-25T18:06:16.753Z,16.63
2023-01-25T18:08:46.468Z,17.48
2023-01-25T18:11:16.166Z,22.17
2023-01-25T18:13:44.468Z,23.45
2023-01-25T18:16:14.971Z,22.65
2023-01-25T18:18:43.651Z,20.88
2023-01-25T18:21:16.549Z,29.08
2023-01-25T18:23:47.514Z,24.00
2023-01-25T18:26:21.813Z,22.25
2023-01-25T18:28:49.448Z,19.48
2023-01-25T18:31:17.613Z,21.17
2023-01-25T18:33:44.977Z,18.95
2023-01-25T18:36:15.546Z,18.75
2023-01-25T18:38:42.140Z,18.38
2023-01-25T18:41:08.630Z,20.02
2023-01-25T18:43:35.937Z,19.60
2023-01-25T18:46:08.179Z,20.38
2023-01-25T18:48:35.263Z,19.23
2023-01-25T18:51:11.225Z,20.13
2023-01-25T18:53:39.827Z,18.77
2023-01-25T18:56:07.341Z,23.40
2023-01-25T18:58:36.391Z,23.10
2023-01-25T19:01:17.539Z,22.83
2023-01-25T19:03:45.075Z,23.23
2023-01-25T19:06:12.357Z,24.95
2023-01-25T19:08:44.255Z,25.85
2023-01-25T19:11:13.568Z,21.60
2023-01-25T19:13:41.493Z,19.73
2023-01-25T19:16:09.567Z,23.92
2023-01-25T19:18:39.657Z,21.65
2023-01-25T19:21:10.811Z,19.20
2023-01-25T19:23:39.514Z,21.00
2023-01-25T19:26:08.466Z,19.48
2023-01-25T19:28:36.692Z,22.35
2023-01-25T19:31:26.561Z,19.27
2023-01-25T19:34:00.455Z,21.55
2023-01-25T19:36:29.765Z,23.00
2023-01-25T19:38:57.555Z,21.42
2023-01-25T19:41:26.813Z,20.98
2023-01-25T19:44:03.613Z,25.02
2023-01-25T19:46:35.636Z,23.20
2023-01-25T19:49:04.496Z,24.58
2023-01-25T19:51:33.977Z,25.05
2023-01-25T19:54:06.263Z,21.75
2023-01-25T19:56:39.204Z,21.20
2023-01-25T19:59:09.214Z,24.00
2023-01-25T20:01:36.947Z,21.65
2023-01-25T20:04:06.168Z,30.75
2023-01-25T20:06:33.149Z,24.63
2023-01-25T20:08:59.976Z,25.38
2023-01-25T20:11:29.206Z,27.52
2023-01-25T20:14:02.599Z,26.52
2023-01-25T20:16:32.154Z,24.92
2023-01-25T20:18:59.985Z,21.27
2023-01-25T20:21:28.309Z,31.00
2023-01-25T20:23:58.594Z,43.00
2023-01-25T20:26:30.633Z,23.80
2023-01-25T20:28:59.225Z,25.35
2023-01-25T20:31:27.869Z,27.52
2023-01-25T20:33:59.425Z,23.42
2023-01-25T20:36:28.410Z,22.65
2023-01-25T20:38:55.703Z,23.65
2023-01-25T20:41:23.113Z,22.35
2023-01-25T20:43:57.620Z,25.85
2023-01-25T20:46:26.080Z,28.10
2023-01-25T20:48:56.471Z,22.48
2023-01-25T20:51:24.286Z,22.77
2023-01-25T20:53:51.676Z,28.60
2023-01-25T20:56:19.481Z,24.80
2023-01-25T20:58:50.640Z,23.45
2023-01-25T21:01:28.777Z,24.13
2023-01-25T21:03:57.154Z,24.98
2023-01-25T21:06:26.065Z,26.10
2023-01-25T21:08:52.898Z,27.75
2023-01-25T21:11:19.792Z,25.33
2023-01-25T21:13:48.047Z,25.13
2023-01-25T21:16:18.039Z,26.73
2023-01-25T21:18:50.014Z,26.00
2023-01-25T21:21:20.280Z,27.67
2023-01-25T21:23:48.996Z,25.48
2023-01-25T21:26:19.084Z,28.02
2023-01-25T21:28:46.465Z,24.63
2023-01-25T21:31:19.257Z,24.48
2023-01-25T21:33:47.000Z,25.23
2023-01-25T21:36:15.028Z,29.02
2023-01-25T21:38:44.082Z,23.00
2023-01-25T21:41:13.366Z,24.55
2023-01-25T21:43:58.813Z,21.75
2023-01-25T21:46:27.468Z,20.90
2023-01-25T21:49:14.413Z,23.25
2023-01-25T21:51:51.448Z,28.63
2023-01-25T21:54:22.393Z,25.25
2023-01-25T21:56:51.370Z,24.92
2023-01-25T21:59:18.367Z,26.02
2023-01-25T22:01:46.417Z,26.80
2023-01-25T22:04:14.733Z,23.83
2023-01-25T22:06:42.425Z,24.00
2023-01-25T22:09:10.304Z,27.10
2023-01-25T22:11:37.086Z,24.50
2023-01-25T22:14:03.676Z,25.15
2023-01-25T22:16:31.105Z,24.17
2023-01-25T22:19:00.153Z,22.40
2023-01-25T22:21:30.979Z,23.35
2023-01-25T22:24:03.098Z,25.20
2023-01-25T22:27:03.887Z,25.05
2023-01-25T22:29:32.420Z,23.65
2023-01-25T22:31:59.208Z,23.77
2023-01-25T22:34:26.920Z,31.02
2023-01-25T22:36:53.491Z,25.70
2023-01-25T22:39:20.200Z,25.45
2023-01-25T22:41:46.866Z,26.70
2023-01-25T22:44:14.948Z,27.52
2023-01-25T22:46:41.457Z,28.35
2023-01-25T22:49:08.030Z,28.00
2023-01-25T22:51:34.716Z,26.15
2023-01-25T22:54:01.813Z,25.83
2023-01-25T22:56:34.925Z,26.23
2023-01-25T22:59:02.098Z,27.85
2023-01-25T23:01:31.717Z,24.65
2023-01-25T23:03:59.156Z,26.65
2023-01-25T23:06:28.437Z,25.55
2023-01-25T23:08:57.278Z,29.17
2023-01-25T23:11:25.291Z,25.63
2023-01-25T23:14:13.917Z,26.67
2023-01-25T23:16:42.543Z,27.63
2023-01-25T23:19:09.908Z,25.25
2023-01-25T23:21:36.805Z,26.17
2023-01-25T23:24:04.172Z,28.75
2023-01-25T23:26:39.190Z,27.83
2023-01-25T23:29:09.350Z,27.95
2023-01-25T23:31:36.944Z,25.10
2023-01-25T23:34:05.697Z,25.25
2023-01-25T23:36:38.909Z,22.88
2023-01-25T23:39:06.199Z,27.80
2023-01-25T23:41:32.859Z,25.75
2023-01-25T23:44:01.329Z,25.77
2023-01-25T23:46:28.588Z,26.20
2023-01-25T23:48:55.660Z,28.38
2023-01-25T23:51:22.581Z,25.73
2023-01-25T23:53:49.248Z,23.90
2023-01-25T23:56:19.093Z,23.90
2023-01-25T23:58:46.320Z,23.42
